sensor_id;sensor_type;location;lat;lon;timestamp;P1;durP1;ratioP1;P2;durP2;ratioP2
86304;SDS011;76964;49.316;7.118;2024-03-29T00:00:47;0.60;;;0.60;;
86304;SDS011;76964;49.316;7.118;2024-03-29T00:03:14;0.50;;;0.50;;
86304;SDS011;76964;49.316;7.118;2024-03-29T00:05:40;0.50;;;0.50;;
86304;SDS011;76964;49.316;7.118;2024-03-29T00:08:06;0.50;;;0.50;;
86304;SDS011;76964;49.316;7.118;2024-03-29T00:10:33;0.60;;;0.60;;
86304;SDS011;76964;49.316;7.118;2024-03-29T00:12:59;0.50;;;0.50;;
86304;SDS011;76964;49.316;7.118;2024-03-29T00:15:25;0.50;;;0.50;;
86304;SDS011;76964;49.316;7.118;2024-03-29T00:17:51;0.50;;;0.50;;
86304;SDS011;76964;49.316;7.118;2024-03-29T00:20:19;0.60;;;0.60;;
86304;SDS011;76964;49.316;7.118;2024-03-29T00:22:45;0.60;;;0.60;;
86304;SDS011;76964;49.316;7.118;2024-03-29T00:25:11;0.50;;;0.50;;
86304;SDS011;76964;49.316;7.118;2024-03-29T00:27:37;0.60;;;0.60;;
86304;SDS011;76964;49.316;7.118;2024-03-29T00:30:04;0.60;;;0.60;;
86304;SDS011;76964;49.316;7.118;2024-03-29T00:32:31;0.60;;;0.60;;
86304;SDS011;76964;49.316;7.118;2024-03-29T00:34:57;0.50;;;0.50;;
86304;SDS011;76964;49.316;7.118;2024-03-29T00:37:25;0.50;;;0.50;;
86304;SDS011;76964;49.316;7.118;2024-03-29T00:39:51;0.60;;;0.60;;
86304;SDS011;76964;49.316;7.118;2024-03-29T00:42:17;0.50;;;0.50;;
86304;SDS011;76964;49.316;7.118;2024-03-29T00:44:43;0.50;;;0.50;;
86304;SDS011;76964;49.316;7.118;2024-03-29T00:47:10;0.70;;;0.70;;
86304;SDS011;76964;49.316;7.118;2024-03-29T00:49:36;0.53;;;0.53;;
86304;SDS011;76964;49.316;7.118;2024-03-29T00:52:03;0.50;;;0.50;;
86304;SDS011;76964;49.316;7.118;2024-03-29T00:54:31;0.53;;;0.53;;
86304;SDS011;76964;49.316;7.118;2024-03-29T00:56:57;0.40;;;0.40;;
86304;SDS011;76964;49.316;7.118;2024-03-29T00:59:23;0.60;;;0.60;;
86304;SDS011;76964;49.316;7.118;2024-03-29T01:01:49;0.70;;;0.70;;
86304;SDS011;76964;49.316;7.118;2024-03-29T01:04:16;0.50;;;0.50;;
86304;SDS011;76964;49.316;7.118;2024-03-29T01:06:42;0.50;;;0.50;;
86304;SDS011;76964;49.316;7.118;2024-03-29T01:09:09;0.63;;;0.63;;
86304;SDS011;76964;49.316;7.118;2024-03-29T01:11:37;0.57;;;0.57;;
86304;SDS011;76964;49.316;7.118;2024-03-29T01:14:04;0.50;;;0.50;;
86304;SDS011;76964;49.316;7.118;2024-03-29T01:16:31;0.40;;;0.40;;
86304;SDS011;76964;49.316;7.118;2024-03-29T01:18:57;0.50;;;0.50;;
86304;SDS011;76964;49.316;7.118;2024-03-29T01:21:23;0.40;;;0.40;;
86304;SDS011;76964;49.316;7.118;2024-03-29T01:23:49;0.60;;;0.60;;
86304;SDS011;76964;49.316;7.118;2024-03-29T01:26:16;0.53;;;0.53;;
86304;SDS011;76964;49.316;7.118;2024-03-29T01:28:43;0.70;;;0.70;;
86304;SDS011;76964;49.316;7.118;2024-03-29T01:31:10;0.77;;;0.70;;
86304;SDS011;76964;49.316;7.118;2024-03-29T01:33:37;0.60;;;0.60;;
86304;SDS011;76964;49.316;7.118;2024-03-29T01:36:03;0.50;;;0.50;;
86304;SDS011;76964;49.316;7.118;2024-03-29T01:38:30;0.60;;;0.60;;
86304;SDS011;76964;49.316;7.118;2024-03-29T01:40:56;0.50;;;0.50;;
86304;SDS011;76964;49.316;7.118;2024-03-29T01:43:22;0.60;;;0.60;;
86304;SDS011;76964;49.316;7.118;2024-03-29T01:45:52;0.60;;;0.60;;
86304;SDS011;76964;49.316;7.118;2024-03-29T01:48:21;0.60;;;0.60;;
86304;SDS011;76964;49.316;7.118;2024-03-29T01:50:49;0.40;;;0.40;;
86304;SDS011;76964;49.316;7.118;2024-03-29T01:53:18;0.60;;;0.60;;
86304;SDS011;76964;49.316;7.118;2024-03-29T01:55:46;0.43;;;0.43;;
86304;SDS011;76964;49.316;7.118;2024-03-29T01:58:13;0.60;;;0.60;;
86304;SDS011;76964;49.316;7.118;2024-03-29T02:00:41;0.40;;;0.40;;
86304;SDS011;76964;49.316;7.118;2024-03-29T02:03:16;0.57;;;0.57;;
86304;SDS011;76964;49.316;7.118;2024-03-29T02:05:44;0.50;;;0.50;;
86304;SDS011;76964;49.316;7.118;2024-03-29T02:08:12;0.33;;;0.33;;
86304;SDS011;76964;49.316;7.118;2024-03-29T02:10:40;0.37;;;0.37;;
86304;SDS011;76964;49.316;7.118;2024-03-29T02:13:07;0.60;;;0.60;;
86304;SDS011;76964;49.316;7.118;2024-03-29T02:15:34;0.60;;;0.60;;
86304;SDS011;76964;49.316;7.118;2024-03-29T02:18:01;0.53;;;0.53;;
86304;SDS011;76964;49.316;7.118;2024-03-29T02:20:29;0.70;;;0.70;;
86304;SDS011;76964;49.316;7.118;2024-03-29T02:22:58;0.40;;;0.40;;
86304;SDS011;76964;49.316;7.118;2024-03-29T02:25:30;0.50;;;0.50;;
86304;SDS011;76964;49.316;7.118;2024-03-29T02:27:57;0.47;;;0.47;;
86304;SDS011;76964;49.316;7.118;2024-03-29T02:30:26;0.60;;;0.60;;
86304;SDS011;76964;49.316;7.118;2024-03-29T02:32:53;0.50;;;0.50;;
86304;SDS011;76964;49.316;7.118;2024-03-29T02:35:20;0.50;;;0.50;;
86304;SDS011;76964;49.316;7.118;2024-03-29T02:37:47;0.53;;;0.53;;
86304;SDS011;76964;49.316;7.118;2024-03-29T02:40:14;0.47;;;0.47;;
86304;SDS011;76964;49.316;7.118;2024-03-29T02:42:43;0.40;;;0.40;;
86304;SDS011;76964;49.316;7.118;2024-03-29T02:45:09;0.50;;;0.50;;
86304;SDS011;76964;49.316;7.118;2024-03-29T02:47:36;0.70;;;0.70;;
86304;SDS011;76964;49.316;7.118;2024-03-29T02:50:03;0.50;;;0.50;;
86304;SDS011;76964;49.316;7.118;2024-03-29T02:52:31;0.30;;;0.30;;
86304;SDS011;76964;49.316;7.118;2024-03-29T02:54:58;0.40;;;0.40;;
86304;SDS011;76964;49.316;7.118;2024-03-29T02:57:24;0.50;;;0.50;;
86304;SDS011;76964;49.316;7.118;2024-03-29T02:59:52;0.53;;;0.53;;
86304;SDS011;76964;49.316;7.118;2024-03-29T03:02:18;0.50;;;0.50;;
86304;SDS011;76964;49.316;7.118;2024-03-29T03:04:45;0.50;;;0.50;;
86304;SDS011;76964;49.316;7.118;2024-03-29T03:07:11;0.63;;;0.63;;
86304;SDS011;76964;49.316;7.118;2024-03-29T03:09:56;0.50;;;0.50;;
86304;SDS011;76964;49.316;7.118;2024-03-29T03:12:41;0.33;;;0.33;;
86304;SDS011;76964;49.316;7.118;2024-03-29T03:15:09;0.70;;;0.70;;
86304;SDS011;76964;49.316;7.118;2024-03-29T03:17:36;0.70;;;0.70;;
86304;SDS011;76964;49.316;7.118;2024-03-29T03:20:04;0.50;;;0.50;;
86304;SDS011;76964;49.316;7.118;2024-03-29T03:22:32;0.60;;;0.60;;
86304;SDS011;76964;49.316;7.118;2024-03-29T03:24:59;0.70;;;0.70;;
86304;SDS011;76964;49.316;7.118;2024-03-29T03:27:25;0.40;;;0.40;;
86304;SDS011;76964;49.316;7.118;2024-03-29T03:29:52;0.40;;;0.40;;
86304;SDS011;76964;49.316;7.118;2024-03-29T03:32:19;0.50;;;0.50;;
86304;SDS011;76964;49.316;7.118;2024-03-29T03:34:46;0.50;;;0.50;;
86304;SDS011;76964;49.316;7.118;2024-03-29T03:37:12;0.50;;;0.50;;
86304;SDS011;76964;49.316;7.118;2024-03-29T03:39:40;0.50;;;0.50;;
86304;SDS011;76964;49.316;7.118;2024-03-29T03:42:06;0.50;;;0.50;;
86304;SDS011;76964;49.316;7.118;2024-03-29T03:44:33;0.67;;;0.67;;
86304;SDS011;76964;49.316;7.118;2024-03-29T03:46:59;0.43;;;0.43;;
86304;SDS011;76964;49.316;7.118;2024-03-29T03:49:27;0.63;;;0.63;;
86304;SDS011;76964;49.316;7.118;2024-03-29T03:51:53;0.63;;;0.63;;
86304;SDS011;76964;49.316;7.118;2024-03-29T03:54:20;0.50;;;0.50;;
86304;SDS011;76964;49.316;7.118;2024-03-29T03:56:47;0.60;;;0.60;;
86304;SDS011;76964;49.316;7.118;2024-03-29T03:59:14;0.60;;;0.60;;
86304;SDS011;76964;49.316;7.118;2024-03-29T04:01:40;0.60;;;0.60;;
86304;SDS011;76964;49.316;7.118;2024-03-29T04:04:07;0.60;;;0.60;;
86304;SDS011;76964;49.316;7.118;2024-03-29T04:06:35;0.60;;;0.60;;
86304;SDS011;76964;49.316;7.118;2024-03-29T04:09:03;0.60;;;0.60;;
86304;SDS011;76964;49.316;7.118;2024-03-29T04:11:29;0.50;;;0.50;;
86304;SDS011;76964;49.316;7.118;2024-03-29T04:13:58;0.40;;;0.40;;
86304;SDS011;76964;49.316;7.118;2024-03-29T04:16:24;0.40;;;0.40;;
86304;SDS011;76964;49.316;7.118;2024-03-29T04:18:51;0.37;;;0.37;;
86304;SDS011;76964;49.316;7.118;2024-03-29T04:21:19;0.70;;;0.70;;
86304;SDS011;76964;49.316;7.118;2024-03-29T04:23:48;0.70;;;0.70;;
86304;SDS011;76964;49.316;7.118;2024-03-29T04:26:14;0.50;;;0.50;;
86304;SDS011;76964;49.316;7.118;2024-03-29T04:28:41;0.50;;;0.50;;
86304;SDS011;76964;49.316;7.118;2024-03-29T04:31:07;0.40;;;0.40;;
86304;SDS011;76964;49.316;7.118;2024-03-29T04:33:34;0.43;;;0.43;;
86304;SDS011;76964;49.316;7.118;2024-03-29T04:36:00;0.60;;;0.60;;
86304;SDS011;76964;49.316;7.118;2024-03-29T04:38:29;0.50;;;0.50;;
86304;SDS011;76964;49.316;7.118;2024-03-29T04:40:58;0.50;;;0.50;;
86304;SDS011;76964;49.316;7.118;2024-03-29T04:43:26;0.57;;;0.57;;
86304;SDS011;76964;49.316;7.118;2024-03-29T04:46:01;0.40;;;0.40;;
86304;SDS011;76964;49.316;7.118;2024-03-29T04:48:29;0.40;;;0.40;;
86304;SDS011;76964;49.316;7.118;2024-03-29T04:50:56;0.50;;;0.50;;
86304;SDS011;76964;49.316;7.118;2024-03-29T04:53:23;0.40;;;0.40;;
86304;SDS011;76964;49.316;7.118;2024-03-29T04:55:54;0.40;;;0.40;;
86304;SDS011;76964;49.316;7.118;2024-03-29T04:58:22;0.50;;;0.50;;
86304;SDS011;76964;49.316;7.118;2024-03-29T05:00:50;0.50;;;0.50;;
86304;SDS011;76964;49.316;7.118;2024-03-29T05:03:18;0.70;;;0.70;;
86304;SDS011;76964;49.316;7.118;2024-03-29T05:05:45;0.80;;;0.50;;
86304;SDS011;76964;49.316;7.118;2024-03-29T05:08:13;0.50;;;0.50;;
86304;SDS011;76964;49.316;7.118;2024-03-29T05:10:40;0.60;;;0.60;;
86304;SDS011;76964;49.316;7.118;2024-03-29T05:13:07;0.60;;;0.60;;
86304;SDS011;76964;49.316;7.118;2024-03-29T05:15:36;0.60;;;0.60;;
86304;SDS011;76964;49.316;7.118;2024-03-29T05:18:03;2.13;;;1.20;;
86304;SDS011;76964;49.316;7.118;2024-03-29T05:20:31;3.13;;;1.60;;
86304;SDS011;76964;49.316;7.118;2024-03-29T05:22:58;2.80;;;1.47;;
86304;SDS011;76964;49.316;7.118;2024-03-29T05:25:25;1.40;;;1.20;;
86304;SDS011;76964;49.316;7.118;2024-03-29T05:27:53;1.30;;;1.20;;
86304;SDS011;76964;49.316;7.118;2024-03-29T05:30:20;2.80;;;1.83;;
86304;SDS011;76964;49.316;7.118;2024-03-29T05:32:50;2.57;;;2.00;;
86304;SDS011;76964;49.316;7.118;2024-03-29T05:35:17;3.03;;;1.80;;
86304;SDS011;76964;49.316;7.118;2024-03-29T05:37:44;2.70;;;2.00;;
86304;SDS011;76964;49.316;7.118;2024-03-29T05:40:15;2.60;;;2.17;;
86304;SDS011;76964;49.316;7.118;2024-03-29T05:42:42;2.57;;;2.03;;
86304;SDS011;76964;49.316;7.118;2024-03-29T05:45:21;5.93;;;2.60;;
86304;SDS011;76964;49.316;7.118;2024-03-29T05:47:52;5.43;;;2.63;;
86304;SDS011;76964;49.316;7.118;2024-03-29T05:50:20;4.87;;;2.70;;
86304;SDS011;76964;49.316;7.118;2024-03-29T05:52:47;5.97;;;2.90;;
86304;SDS011;76964;49.316;7.118;2024-03-29T05:55:14;4.07;;;2.47;;
86304;SDS011;76964;49.316;7.118;2024-03-29T05:57:42;2.20;;;2.00;;
86304;SDS011;76964;49.316;7.118;2024-03-29T06:00:10;3.80;;;2.83;;
86304;SDS011;76964;49.316;7.118;2024-03-29T06:02:40;3.63;;;2.60;;
86304;SDS011;76964;49.316;7.118;2024-03-29T06:05:09;2.90;;;2.70;;
86304;SDS011;76964;49.316;7.118;2024-03-29T06:07:37;5.10;;;2.70;;
86304;SDS011;76964;49.316;7.118;2024-03-29T06:10:04;5.20;;;2.87;;
86304;SDS011;76964;49.316;7.118;2024-03-29T06:12:34;4.70;;;2.70;;
86304;SDS011;76964;49.316;7.118;2024-03-29T06:15:01;4.50;;;3.07;;
86304;SDS011;76964;49.316;7.118;2024-03-29T06:17:46;4.97;;;2.83;;
86304;SDS011;76964;49.316;7.118;2024-03-29T06:20:14;4.07;;;2.90;;
86304;SDS011;76964;49.316;7.118;2024-03-29T06:22:41;4.77;;;2.70;;
86304;SDS011;76964;49.316;7.118;2024-03-29T06:25:09;3.17;;;2.73;;
86304;SDS011;76964;49.316;7.118;2024-03-29T06:27:36;2.80;;;2.60;;
86304;SDS011;76964;49.316;7.118;2024-03-29T06:30:05;4.13;;;2.77;;
86304;SDS011;76964;49.316;7.118;2024-03-29T06:32:33;4.27;;;2.60;;
86304;SDS011;76964;49.316;7.118;2024-03-29T06:35:01;3.10;;;2.63;;
86304;SDS011;76964;49.316;7.118;2024-03-29T06:37:30;3.07;;;2.47;;
86304;SDS011;76964;49.316;7.118;2024-03-29T06:39:57;4.53;;;2.90;;
86304;SDS011;76964;49.316;7.118;2024-03-29T06:42:24;3.93;;;3.00;;
86304;SDS011;76964;49.316;7.118;2024-03-29T06:44:51;4.60;;;2.93;;
86304;SDS011;76964;49.316;7.118;2024-03-29T06:47:20;4.37;;;2.70;;
86304;SDS011;76964;49.316;7.118;2024-03-29T06:49:47;3.80;;;2.90;;
86304;SDS011;76964;49.316;7.118;2024-03-29T06:52:14;4.87;;;3.00;;
86304;SDS011;76964;49.316;7.118;2024-03-29T06:54:43;3.03;;;2.70;;
86304;SDS011;76964;49.316;7.118;2024-03-29T06:57:10;5.40;;;3.10;;
86304;SDS011;76964;49.316;7.118;2024-03-29T06:59:40;4.60;;;3.00;;
86304;SDS011;76964;49.316;7.118;2024-03-29T07:02:07;5.10;;;3.17;;
86304;SDS011;76964;49.316;7.118;2024-03-29T07:04:35;3.27;;;2.80;;
86304;SDS011;76964;49.316;7.118;2024-03-29T07:07:02;3.00;;;2.80;;
86304;SDS011;76964;49.316;7.118;2024-03-29T07:09:30;3.03;;;2.80;;
86304;SDS011;76964;49.316;7.118;2024-03-29T07:11:58;3.53;;;2.80;;
86304;SDS011;76964;49.316;7.118;2024-03-29T07:14:25;4.50;;;2.70;;
86304;SDS011;76964;49.316;7.118;2024-03-29T07:16:53;3.60;;;2.87;;
86304;SDS011;76964;49.316;7.118;2024-03-29T07:19:22;3.63;;;2.63;;
86304;SDS011;76964;49.316;7.118;2024-03-29T07:21:49;4.43;;;2.90;;
86304;SDS011;76964;49.316;7.118;2024-03-29T07:24:18;3.87;;;3.00;;
86304;SDS011;76964;49.316;7.118;2024-03-29T07:26:45;3.27;;;2.87;;
86304;SDS011;76964;49.316;7.118;2024-03-29T07:29:14;4.43;;;2.90;;
86304;SDS011;76964;49.316;7.118;2024-03-29T07:31:41;3.90;;;2.63;;
86304;SDS011;76964;49.316;7.118;2024-03-29T07:34:08;4.03;;;2.90;;
86304;SDS011;76964;49.316;7.118;2024-03-29T07:36:36;3.43;;;2.77;;
86304;SDS011;76964;49.316;7.118;2024-03-29T07:39:04;2.87;;;2.63;;
86304;SDS011;76964;49.316;7.118;2024-03-29T07:41:32;2.50;;;2.40;;
86304;SDS011;76964;49.316;7.118;2024-03-29T07:43:59;3.53;;;2.60;;
86304;SDS011;76964;49.316;7.118;2024-03-29T07:46:32;5.90;;;3.07;;
86304;SDS011;76964;49.316;7.118;2024-03-29T07:49:00;4.30;;;3.00;;
86304;SDS011;76964;49.316;7.118;2024-03-29T07:51:28;3.87;;;2.50;;
86304;SDS011;76964;49.316;7.118;2024-03-29T07:53:55;3.07;;;2.60;;
86304;SDS011;76964;49.316;7.118;2024-03-29T07:56:22;3.43;;;2.63;;
86304;SDS011;76964;49.316;7.118;2024-03-29T07:58:50;3.00;;;2.67;;
86304;SDS011;76964;49.316;7.118;2024-03-29T08:01:19;2.83;;;2.63;;
86304;SDS011;76964;49.316;7.118;2024-03-29T08:03:51;3.13;;;2.83;;
86304;SDS011;76964;49.316;7.118;2024-03-29T08:06:18;2.90;;;2.70;;
86304;SDS011;76964;49.316;7.118;2024-03-29T08:08:46;2.90;;;2.47;;
86304;SDS011;76964;49.316;7.118;2024-03-29T08:11:13;2.67;;;2.47;;
86304;SDS011;76964;49.316;7.118;2024-03-29T08:13:40;2.47;;;2.37;;
86304;SDS011;76964;49.316;7.118;2024-03-29T08:16:07;3.07;;;2.70;;
86304;SDS011;76964;49.316;7.118;2024-03-29T08:18:37;2.60;;;2.40;;
86304;SDS011;76964;49.316;7.118;2024-03-29T08:21:06;4.07;;;2.73;;
86304;SDS011;76964;49.316;7.118;2024-03-29T08:23:38;3.40;;;2.60;;
86304;SDS011;76964;49.316;7.118;2024-03-29T08:26:06;3.17;;;2.90;;
86304;SDS011;76964;49.316;7.118;2024-03-29T08:28:33;2.50;;;2.30;;
86304;SDS011;76964;49.316;7.118;2024-03-29T08:31:07;2.60;;;2.43;;
86304;SDS011;76964;49.316;7.118;2024-03-29T08:33:34;3.80;;;3.00;;
86304;SDS011;76964;49.316;7.118;2024-03-29T08:36:05;2.60;;;2.40;;
86304;SDS011;76964;49.316;7.118;2024-03-29T08:38:33;2.60;;;2.40;;
86304;SDS011;76964;49.316;7.118;2024-03-29T08:41:01;2.70;;;2.50;;
86304;SDS011;76964;49.316;7.118;2024-03-29T08:43:29;2.50;;;2.40;;
86304;SDS011;76964;49.316;7.118;2024-03-29T08:45:56;2.90;;;2.67;;
86304;SDS011;76964;49.316;7.118;2024-03-29T08:48:23;2.97;;;2.77;;
86304;SDS011;76964;49.316;7.118;2024-03-29T08:50:50;2.37;;;2.27;;
86304;SDS011;76964;49.316;7.118;2024-03-29T08:53:19;2.50;;;2.30;;
86304;SDS011;76964;49.316;7.118;2024-03-29T08:55:47;3.60;;;2.50;;
86304;SDS011;76964;49.316;7.118;2024-03-29T08:58:14;3.93;;;2.67;;
86304;SDS011;76964;49.316;7.118;2024-03-29T09:00:43;2.63;;;2.43;;
86304;SDS011;76964;49.316;7.118;2024-03-29T09:03:10;2.50;;;2.30;;
86304;SDS011;76964;49.316;7.118;2024-03-29T09:05:37;2.47;;;2.27;;
86304;SDS011;76964;49.316;7.118;2024-03-29T09:08:04;2.53;;;2.40;;
86304;SDS011;76964;49.316;7.118;2024-03-29T09:10:33;2.43;;;2.30;;
86304;SDS011;76964;49.316;7.118;2024-03-29T09:13:00;2.80;;;2.60;;
86304;SDS011;76964;49.316;7.118;2024-03-29T09:15:28;2.50;;;2.37;;
86304;SDS011;76964;49.316;7.118;2024-03-29T09:17:55;2.63;;;2.50;;
86304;SDS011;76964;49.316;7.118;2024-03-29T09:20:25;2.63;;;2.43;;
86304;SDS011;76964;49.316;7.118;2024-03-29T09:22:52;2.20;;;2.10;;
86304;SDS011;76964;49.316;7.118;2024-03-29T09:25:19;2.70;;;2.50;;
86304;SDS011;76964;49.316;7.118;2024-03-29T09:27:48;2.00;;;1.90;;
86304;SDS011;76964;49.316;7.118;2024-03-29T09:30:15;2.67;;;2.47;;
86304;SDS011;76964;49.316;7.118;2024-03-29T09:32:44;2.67;;;2.47;;
86304;SDS011;76964;49.316;7.118;2024-03-29T09:35:11;3.20;;;2.60;;
86304;SDS011;76964;49.316;7.118;2024-03-29T09:37:38;2.20;;;2.10;;
86304;SDS011;76964;49.316;7.118;2024-03-29T09:40:06;2.37;;;2.27;;
86304;SDS011;76964;49.316;7.118;2024-03-29T09:42:34;2.30;;;2.20;;
86304;SDS011;76964;49.316;7.118;2024-03-29T09:45:05;2.63;;;2.43;;
86304;SDS011;76964;49.316;7.118;2024-03-29T09:47:35;2.23;;;2.10;;
86304;SDS011;76964;49.316;7.118;2024-03-29T09:50:05;2.37;;;2.27;;
86304;SDS011;76964;49.316;7.118;2024-03-29T09:52:34;2.40;;;2.30;;
86304;SDS011;76964;49.316;7.118;2024-03-29T09:55:02;2.57;;;2.37;;
86304;SDS011;76964;49.316;7.118;2024-03-29T09:57:31;2.10;;;2.00;;
86304;SDS011;76964;49.316;7.118;2024-03-29T09:59:58;2.10;;;2.00;;
86304;SDS011;76964;49.316;7.118;2024-03-29T10:02:27;2.40;;;2.20;;
86304;SDS011;76964;49.316;7.118;2024-03-29T10:04:57;2.83;;;2.63;;
86304;SDS011;76964;49.316;7.118;2024-03-29T10:07:28;2.30;;;2.20;;
86304;SDS011;76964;49.316;7.118;2024-03-29T10:09:56;2.80;;;2.40;;
86304;SDS011;76964;49.316;7.118;2024-03-29T10:12:24;1.97;;;1.87;;
86304;SDS011;76964;49.316;7.118;2024-03-29T10:14:51;2.40;;;2.20;;
86304;SDS011;76964;49.316;7.118;2024-03-29T10:17:20;2.10;;;2.00;;
86304;SDS011;76964;49.316;7.118;2024-03-29T10:19:49;2.60;;;2.40;;
86304;SDS011;76964;49.316;7.118;2024-03-29T10:22:16;2.30;;;2.20;;
86304;SDS011;76964;49.316;7.118;2024-03-29T10:24:43;2.37;;;2.27;;
86304;SDS011;76964;49.316;7.118;2024-03-29T10:27:11;2.10;;;2.00;;
86304;SDS011;76964;49.316;7.118;2024-03-29T10:29:40;2.67;;;2.47;;
86304;SDS011;76964;49.316;7.118;2024-03-29T10:32:07;2.23;;;2.13;;
86304;SDS011;76964;49.316;7.118;2024-03-29T10:34:34;2.20;;;2.10;;
86304;SDS011;76964;49.316;7.118;2024-03-29T10:37:04;1.80;;;1.70;;
86304;SDS011;76964;49.316;7.118;2024-03-29T10:39:31;2.00;;;1.90;;
86304;SDS011;76964;49.316;7.118;2024-03-29T10:41:59;2.10;;;2.00;;
86304;SDS011;76964;49.316;7.118;2024-03-29T10:44:28;2.20;;;2.10;;
86304;SDS011;76964;49.316;7.118;2024-03-29T10:46:56;2.03;;;1.87;;
86304;SDS011;76964;49.316;7.118;2024-03-29T10:49:23;2.30;;;2.20;;
86304;SDS011;76964;49.316;7.118;2024-03-29T10:51:51;2.23;;;2.13;;
86304;SDS011;76964;49.316;7.118;2024-03-29T10:54:23;2.03;;;1.93;;
86304;SDS011;76964;49.316;7.118;2024-03-29T10:56:52;2.10;;;2.00;;
86304;SDS011;76964;49.316;7.118;2024-03-29T10:59:27;2.30;;;2.20;;
86304;SDS011;76964;49.316;7.118;2024-03-29T11:02:05;1.90;;;1.80;;
86304;SDS011;76964;49.316;7.118;2024-03-29T11:04:38;2.13;;;2.03;;
86304;SDS011;76964;49.316;7.118;2024-03-29T11:07:09;2.43;;;2.23;;
86304;SDS011;76964;49.316;7.118;2024-03-29T11:09:43;1.80;;;1.73;;
86304;SDS011;76964;49.316;7.118;2024-03-29T11:12:14;2.10;;;2.00;;
86304;SDS011;76964;49.316;7.118;2024-03-29T11:14:46;1.90;;;1.80;;
86304;SDS011;76964;49.316;7.118;2024-03-29T11:17:20;2.10;;;2.00;;
86304;SDS011;76964;49.316;7.118;2024-03-29T11:19:48;2.13;;;2.03;;
86304;SDS011;76964;49.316;7.118;2024-03-29T11:22:15;2.10;;;2.00;;
86304;SDS011;76964;49.316;7.118;2024-03-29T11:24:44;1.93;;;1.83;;
86304;SDS011;76964;49.316;7.118;2024-03-29T11:27:11;1.73;;;1.73;;
86304;SDS011;76964;49.316;7.118;2024-03-29T11:29:41;2.00;;;1.90;;
86304;SDS011;76964;49.316;7.118;2024-03-29T11:32:10;1.97;;;1.87;;
86304;SDS011;76964;49.316;7.118;2024-03-29T11:34:43;2.03;;;1.93;;
86304;SDS011;76964;49.316;7.118;2024-03-29T11:37:10;1.97;;;1.90;;
86304;SDS011;76964;49.316;7.118;2024-03-29T11:39:38;2.00;;;1.90;;
86304;SDS011;76964;49.316;7.118;2024-03-29T11:42:07;1.97;;;1.87;;
86304;SDS011;76964;49.316;7.118;2024-03-29T11:44:34;1.73;;;1.73;;
86304;SDS011;76964;49.316;7.118;2024-03-29T11:47:01;2.00;;;1.90;;
86304;SDS011;76964;49.316;7.118;2024-03-29T11:49:33;2.00;;;1.90;;
86304;SDS011;76964;49.316;7.118;2024-03-29T11:52:04;1.80;;;1.70;;
86304;SDS011;76964;49.316;7.118;2024-03-29T11:54:38;1.90;;;1.80;;
86304;SDS011;76964;49.316;7.118;2024-03-29T11:57:05;2.00;;;1.90;;
86304;SDS011;76964;49.316;7.118;2024-03-29T11:59:34;1.77;;;1.67;;
86304;SDS011;76964;49.316;7.118;2024-03-29T12:02:01;1.73;;;1.63;;
86304;SDS011;76964;49.316;7.118;2024-03-29T12:04:28;1.60;;;1.60;;
86304;SDS011;76964;49.316;7.118;2024-03-29T12:06:55;1.70;;;1.60;;
86304;SDS011;76964;49.316;7.118;2024-03-29T12:09:22;1.40;;;1.40;;
86304;SDS011;76964;49.316;7.118;2024-03-29T12:11:50;1.77;;;1.70;;
86304;SDS011;76964;49.316;7.118;2024-03-29T12:14:18;2.00;;;1.90;;
86304;SDS011;76964;49.316;7.118;2024-03-29T12:16:47;1.60;;;1.60;;
86304;SDS011;76964;49.316;7.118;2024-03-29T12:19:22;1.60;;;1.60;;
86304;SDS011;76964;49.316;7.118;2024-03-29T12:21:50;1.80;;;1.70;;
86304;SDS011;76964;49.316;7.118;2024-03-29T12:24:17;1.57;;;1.50;;
86304;SDS011;76964;49.316;7.118;2024-03-29T12:26:44;3.20;;;1.87;;
86304;SDS011;76964;49.316;7.118;2024-03-29T12:29:11;3.53;;;2.03;;
86304;SDS011;76964;49.316;7.118;2024-03-29T12:31:39;2.10;;;1.97;;
86304;SDS011;76964;49.316;7.118;2024-03-29T12:34:06;3.57;;;1.90;;
86304;SDS011;76964;49.316;7.118;2024-03-29T12:36:33;2.03;;;1.90;;
86304;SDS011;76964;49.316;7.118;2024-03-29T12:39:02;2.00;;;1.90;;
86304;SDS011;76964;49.316;7.118;2024-03-29T12:41:31;2.80;;;2.03;;
86304;SDS011;76964;49.316;7.118;2024-03-29T12:44:00;2.10;;;1.90;;
86304;SDS011;76964;49.316;7.118;2024-03-29T12:46:27;2.27;;;1.87;;
86304;SDS011;76964;49.316;7.118;2024-03-29T12:48:59;2.17;;;1.93;;
86304;SDS011;76964;49.316;7.118;2024-03-29T12:51:27;13.87;;;7.37;;
86304;SDS011;76964;49.316;7.118;2024-03-29T12:53:54;7.17;;;5.47;;
86304;SDS011;76964;49.316;7.118;2024-03-29T12:56:25;11.27;;;7.40;;
86304;SDS011;76964;49.316;7.118;2024-03-29T12:58:53;15.47;;;9.17;;
86304;SDS011;76964;49.316;7.118;2024-03-29T13:01:20;15.27;;;8.90;;
86304;SDS011;76964;49.316;7.118;2024-03-29T13:03:47;11.83;;;8.30;;
86304;SDS011;76964;49.316;7.118;2024-03-29T13:06:16;11.97;;;7.80;;
86304;SDS011;76964;49.316;7.118;2024-03-29T13:08:43;13.43;;;7.50;;
86304;SDS011;76964;49.316;7.118;2024-03-29T13:11:10;12.20;;;7.70;;
86304;SDS011;76964;49.316;7.118;2024-03-29T13:13:37;12.10;;;7.80;;
86304;SDS011;76964;49.316;7.118;2024-03-29T13:16:04;11.40;;;7.60;;
86304;SDS011;76964;49.316;7.118;2024-03-29T13:18:33;10.27;;;7.00;;
86304;SDS011;76964;49.316;7.118;2024-03-29T13:21:04;12.07;;;7.53;;
86304;SDS011;76964;49.316;7.118;2024-03-29T13:23:32;10.87;;;7.50;;
86304;SDS011;76964;49.316;7.118;2024-03-29T13:26:00;9.90;;;6.47;;
86304;SDS011;76964;49.316;7.118;2024-03-29T13:28:27;7.87;;;6.30;;
86304;SDS011;76964;49.316;7.118;2024-03-29T13:30:54;11.83;;;6.80;;
86304;SDS011;76964;49.316;7.118;2024-03-29T13:33:22;10.37;;;7.07;;
86304;SDS011;76964;49.316;7.118;2024-03-29T13:35:52;9.30;;;6.17;;
86304;SDS011;76964;49.316;7.118;2024-03-29T13:38:22;6.47;;;5.87;;
86304;SDS011;76964;49.316;7.118;2024-03-29T13:40:53;10.53;;;6.17;;
86304;SDS011;76964;49.316;7.118;2024-03-29T13:43:21;8.27;;;6.27;;
86304;SDS011;76964;49.316;7.118;2024-03-29T13:45:49;9.27;;;5.80;;
86304;SDS011;76964;49.316;7.118;2024-03-29T13:48:16;10.93;;;6.47;;
86304;SDS011;76964;49.316;7.118;2024-03-29T13:50:43;8.50;;;5.40;;
86304;SDS011;76964;49.316;7.118;2024-03-29T13:53:10;10.57;;;7.50;;
86304;SDS011;76964;49.316;7.118;2024-03-29T13:55:38;10.27;;;7.23;;
86304;SDS011;76964;49.316;7.118;2024-03-29T13:58:07;10.07;;;6.57;;
86304;SDS011;76964;49.316;7.118;2024-03-29T14:00:36;10.13;;;6.27;;
86304;SDS011;76964;49.316;7.118;2024-03-29T14:03:03;14.90;;;6.20;;
86304;SDS011;76964;49.316;7.118;2024-03-29T14:05:30;9.67;;;6.07;;
86304;SDS011;76964;49.316;7.118;2024-03-29T14:07:57;8.77;;;6.03;;
86304;SDS011;76964;49.316;7.118;2024-03-29T14:10:24;17.37;;;9.90;;
86304;SDS011;76964;49.316;7.118;2024-03-29T14:12:51;17.53;;;9.23;;
86304;SDS011;76964;49.316;7.118;2024-03-29T14:15:21;19.60;;;9.77;;
86304;SDS011;76964;49.316;7.118;2024-03-29T14:17:48;17.53;;;10.33;;
86304;SDS011;76964;49.316;7.118;2024-03-29T14:20:17;21.60;;;10.00;;
86304;SDS011;76964;49.316;7.118;2024-03-29T14:22:44;14.43;;;8.83;;
86304;SDS011;76964;49.316;7.118;2024-03-29T14:25:11;15.10;;;9.83;;
86304;SDS011;76964;49.316;7.118;2024-03-29T14:27:38;15.57;;;9.33;;
86304;SDS011;76964;49.316;7.118;2024-03-29T14:30:12;14.13;;;8.50;;
86304;SDS011;76964;49.316;7.118;2024-03-29T14:32:44;14.37;;;8.40;;
86304;SDS011;76964;49.316;7.118;2024-03-29T14:35:13;13.10;;;8.40;;
86304;SDS011;76964;49.316;7.118;2024-03-29T14:37:40;13.40;;;7.83;;
86304;SDS011;76964;49.316;7.118;2024-03-29T14:40:08;11.70;;;7.43;;
86304;SDS011;76964;49.316;7.118;2024-03-29T14:42:37;10.50;;;7.83;;
86304;SDS011;76964;49.316;7.118;2024-03-29T14:45:05;13.93;;;7.90;;
86304;SDS011;76964;49.316;7.118;2024-03-29T14:47:33;12.37;;;7.37;;
86304;SDS011;76964;49.316;7.118;2024-03-29T14:50:02;10.67;;;7.13;;